Time;durP1;ratioP1;P1;durP2;ratioP2;P2;SDS_P1;SDS_P2;PMS_P1;PMS_P2;Temp;Humidity;BMP_temperature;BMP_pressure;BME280_temperature;BME280_humidity;BME280_pressure;Samples;Min_cycle;Max_cycle;Signal;HPM_P1;HPM_P2
2022/08/28 00:01:36;;;;;;;;;;;;;;;26.56;48.34;99932.03;5362494;32;34586;-71
2022/08/28 00:04:37;;;;;;;;;;;;;;;26.98;45.10;99935.22;5365418;32;35333;-72
2022/08/28 00:07:40;;;;;;;;;;;;;;;26.64;45.77;99932.84;5380681;32;34347;-71
2022/08/28 00:10:48;;;;;;;;;;;;;;;26.95;47.54;99919.38;5367459;32;43442;-73
2022/08/28 00:13:50;;;;;;;;;;;;;;;26.59;49.11;99934.38;5359456;32;34150;-72
2022/08/28 00:16:53;;;;;;;;;;;;;;;26.70;49.67;99942.91;5378334;32;36066;-71
2022/08/28 00:19:55;;;;;;;;;;;;;;;26.54;53.03;99926.00;5358593;32;35354;-71
2022/08/28 00:22:57;;;;;;;;;;;;;;;25.85;56.51;99925.59;5382784;32;34288;-72
2022/08/28 00:25:59;;;;;;;;;;;;;;;25.90;57.82;99917.84;5363775;32;35326;-73
2022/08/28 00:29:01;;;;;;;;;;;;;;;25.66;57.11;99926.75;5371386;32;35393;-73
2022/08/28 00:32:03;;;;;;;;;;;;;;;25.52;57.93;99911.28;5354695;32;34402;-73
2022/08/28 00:35:05;;;;;;;;;;;;;;;25.47;57.68;99909.06;5361223;32;34267;-72
2022/08/28 00:38:11;;;;;;;;;;;;;;;25.30;57.33;99926.19;5365889;32;36150;-73
2022/08/28 00:41:13;;;;;;;;;;;;;;;25.42;57.99;99935.62;5348626;32;44512;-71
2022/08/28 00:44:17;;;;;;;;;;;;;;;25.52;59.15;99935.50;5376134;32;34370;-72
2022/08/28 00:47:18;;;;;;;;;;;;;;;25.49;58.65;99933.13;5362400;32;34439;-74
2022/08/28 00:50:21;;;;;;;;;;;;;;;25.62;56.29;99941.53;5366405;32;34786;-73
2022/08/28 00:53:23;;;;;;;;;;;;;;;25.36;56.45;99942.50;5368225;32;34843;-74
2022/08/28 00:56:30;;;;;;;;;;;;;;;25.07;57.35;99948.34;5363963;32;34072;-72
2022/08/28 00:59:32;;;;;;;;;;;;;;;24.47;59.36;99935.00;5376848;32;34084;-74
2022/08/28 01:02:34;;;;;;;;;;;;;;;24.13;60.93;99951.03;5304334;32;830281;-72
2022/08/28 01:05:36;;;;;;;;;;;;;;;24.62;60.04;99945.13;5385862;32;34168;-73
2022/08/28 01:08:38;;;;;;;;;;;;;;;24.36;60.06;99953.22;5346325;32;35270;-74
2022/08/28 01:11:41;;;;;;;;;;;;;;;24.52;58.80;99945.25;5354514;32;44502;-71
2022/08/28 01:14:44;;;;;;;;;;;;;;;24.64;58.43;99943.97;5357829;32;36398;-73
2022/08/28 01:17:47;;;;;;;;;;;;;;;24.54;59.54;99945.94;5345937;32;34021;-72
2022/08/28 01:20:58;;;;;;;;;;;;;;;24.75;57.15;99938.31;5367766;32;34410;-72
2022/08/28 01:24:10;;;;;;;;;;;;;;;24.32;57.05;99933.84;5358478;32;35282;-72
2022/08/28 01:27:12;;;;;;;;;;;;;;;24.48;56.20;99941.22;5363688;32;44424;-71
2022/08/28 01:30:16;;;;;;;;;;;;;;;24.20;56.46;99954.75;5349423;32;34733;-70
2022/08/28 01:33:18;;;;;;;;;;;;;;;24.57;55.38;99965.25;5347854;32;34324;-72
2022/08/28 01:36:28;;;;;;;;;;;;;;;23.52;58.14;99965.28;5380410;32;35361;-71
2022/08/28 01:39:30;;;;;;;;;;;;;;;23.99;56.75;99973.06;5357561;32;34171;-71
2022/08/28 01:42:37;;;;;;;;;;;;;;;23.68;58.06;99975.31;5382320;32;35485;-72
2022/08/28 01:45:40;;;;;;;;;;;;;;;23.70;58.02;99968.81;5351765;32;34169;-74
2022/08/28 01:48:42;;;;;;;;;;;;;;;24.21;56.39;99975.22;5351827;32;44849;-70
2022/08/28 01:51:44;;;;;;;;;;;;;;;23.59;58.00;99985.13;5360233;32;34252;-71
2022/08/28 01:54:46;;;;;;;;;;;;;;;23.67;58.27;99982.53;5363740;32;35341;-71
2022/08/28 01:57:49;;;;;;;;;;;;;;;23.16;60.10;99980.47;5380707;32;35605;-72
2022/08/28 02:00:52;;;;;;;;;;;;;;;23.20;60.02;99981.88;5352060;32;34797;-72
2022/08/28 02:03:54;;;;;;;;;;;;;;;23.71;58.35;99978.56;5373000;32;34262;-72
2022/08/28 02:06:56;;;;;;;;;;;;;;;23.22;60.00;99972.66;5353886;32;36084;-71
2022/08/28 02:09:58;;;;;;;;;;;;;;;23.14;60.33;99964.53;5368141;32;35480;-73
2022/08/28 02:13:00;;;;;;;;;;;;;;;23.22;59.73;99961.94;5374722;32;34356;-71
2022/08/28 02:16:02;;;;;;;;;;;;;;;22.77;61.66;99961.06;5348247;32;34204;-71
2022/08/28 02:19:04;;;;;;;;;;;;;;;22.58;62.67;99962.81;5378482;32;35424;-71
2022/08/28 02:22:08;;;;;;;;;;;;;;;22.84;62.31;99954.94;5365246;32;33963;-73
2022/08/28 02:25:10;;;;;;;;;;;;;;;22.95;61.70;99945.91;5379852;32;35578;-72
2022/08/28 02:28:12;;;;;;;;;;;;;;;22.61;63.01;99934.91;5348863;32;33648;-73
2022/08/28 02:31:15;;;;;;;;;;;;;;;22.84;62.38;99938.88;5364555;32;34393;-74
2022/08/28 02:34:17;;;;;;;;;;;;;;;23.15;61.41;99936.75;5374371;32;36452;-74
2022/08/28 02:37:19;;;;;;;;;;;;;;;23.12;61.78;99936.19;5362546;32;35459;-74
2022/08/28 02:40:21;;;;;;;;;;;;;;;23.23;61.27;99936.81;5366532;32;34915;-74
2022/08/28 02:43:23;;;;;;;;;;;;;;;23.25;60.72;99942.06;5345818;32;34147;-72
2022/08/28 02:46:25;;;;;;;;;;;;;;;23.14;61.12;99939.56;5380523;32;35421;-71
2022/08/28 02:49:27;;;;;;;;;;;;;;;22.83;62.92;99945.22;5359699;32;34310;-72
2022/08/28 02:52:36;;;;;;;;;;;;;;;23.40;60.33;99945.03;5359612;32;35086;-71
2022/08/28 02:55:38;;;;;;;;;;;;;;;22.89;61.82;99943.81;5380616;32;35226;-72
2022/08/28 02:58:41;;;;;;;;;;;;;;;22.98;62.03;99941.06;5345963;32;44432;-72
2022/08/28 03:01:43;;;;;;;;;;;;;;;22.95;61.66;99935.19;5361463;32;36616;-73
2022/08/28 03:04:45;;;;;;;;;;;;;;;23.29;60.33;99939.87;5366382;32;34364;-71
2022/08/28 03:07:47;;;;;;;;;;;;;;;23.06;60.92;99934.13;5378652;32;35468;-74
2022/08/28 03:10:49;;;;;;;;;;;;;;;23.67;59.11;99963.75;5363072;32;35527;-72
2022/08/28 03:13:51;;;;;;;;;;;;;;;23.49;58.76;99987.84;5361617;32;37045;-73
2022/08/28 03:16:53;;;;;;;;;;;;;;;23.09;61.06;99977.53;5378261;32;35735;-74
2022/08/28 03:19:55;;;;;;;;;;;;;;;22.85;61.75;99967.34;5361108;32;34667;-71
2022/08/28 03:26:18;;;;;;;;;;;;;;;22.88;61.29;99958.22;5361073;32;44542;-72
2022/08/28 03:29:20;;;;;;;;;;;;;;;23.47;58.60;99975.59;5370811;32;35473;-73
2022/08/28 03:32:22;;;;;;;;;;;;;;;23.18;59.53;99975.78;5368345;32;36959;-72
2022/08/28 03:35:24;;;;;;;;;;;;;;;23.09;60.08;99974.03;5361709;32;34333;-72
2022/08/28 03:38:26;;;;;;;;;;;;;;;23.06;60.13;99961.78;5378678;32;35571;-72
2022/08/28 03:41:29;;;;;;;;;;;;;;;22.71;61.28;99966.00;5363326;32;35585;-73
2022/08/28 03:44:30;;;;;;;;;;;;;;;22.76;61.41;99968.25;5364977;32;34073;-72
2022/08/28 03:47:34;;;;;;;;;;;;;;;22.67;61.90;99977.19;5359768;32;33888;-73
2022/08/28 03:50:37;;;;;;;;;;;;;;;22.53;62.73;99983.84;5365640;32;34960;-71
2022/08/28 03:53:39;;;;;;;;;;;;;;;22.46;63.55;99979.22;5361240;32;37465;-73
2022/08/28 03:56:41;;;;;;;;;;;;;;;22.40;63.65;99986.00;5347557;32;45111;-73
2022/08/28 03:59:43;;;;;;;;;;;;;;;22.82;62.21;99986.41;5378230;32;36086;-71
2022/08/28 04:02:45;;;;;;;;;;;;;;;22.33;64.06;99983.06;5343707;32;35724;-71
2022/08/28 04:05:46;;;;;;;;;;;;;;;22.36;64.38;99979.25;5372249;32;35467;-71
2022/08/28 04:08:49;;;;;;;;;;;;;;;22.43;64.08;99966.97;5362445;32;35430;-71
2022/08/28 04:11:53;;;;;;;;;;;;;;;22.37;64.51;99971.06;5366952;32;35582;-72
2022/08/28 04:14:54;;;;;;;;;;;;;;;22.89;62.75;99976.81;5374065;32;32934;-71
2022/08/28 04:17:56;;;;;;;;;;;;;;;23.24;60.99;99973.34;5357310;32;34782;-71
2022/08/28 04:21:04;;;;;;;;;;;;;;;23.64;59.63;99968.59;5380602;32;34119;-71
2022/08/28 04:24:06;;;;;;;;;;;;;;;22.90;62.63;99974.97;5358907;32;35451;-71
2022/08/28 04:27:10;;;;;;;;;;;;;;;23.08;61.81;99975.88;5377591;32;44314;-71
2022/08/28 04:30:12;;;;;;;;;;;;;;;23.91;59.35;99978.37;5361467;32;36007;-71
2022/08/28 04:33:14;;;;;;;;;;;;;;;23.41;60.34;99981.56;5348310;32;34729;-71
2022/08/28 04:36:16;;;;;;;;;;;;;;;23.41;60.67;99973.53;5378359;32;36212;-72
2022/08/28 04:39:18;;;;;;;;;;;;;;;22.77;63.00;99979.81;5357950;32;35507;-72
2022/08/28 04:42:20;;;;;;;;;;;;;;;23.21;61.36;99965.63;5363823;32;34233;-72
2022/08/28 04:45:22;;;;;;;;;;;;;;;23.23;61.24;99971.66;5360348;32;35651;-74
2022/08/28 04:48:24;;;;;;;;;;;;;;;23.59;60.28;99974.38;5376582;32;34345;-73
2022/08/28 04:51:26;;;;;;;;;;;;;;;23.45;60.38;99994.53;5343511;32;35518;-72
2022/08/28 04:54:28;;;;;;;;;;;;;;;23.90;58.51;99995.50;5346295;32;35627;-71
2022/08/28 04:57:30;;;;;;;;;;;;;;;23.50;60.11;99997.59;5363385;32;35521;-73
2022/08/28 05:00:41;;;;;;;;;;;;;;;24.14;58.03;99997.50;5352416;32;35368;-73
2022/08/28 05:03:43;;;;;;;;;;;;;;;24.54;56.07;99995.13;5356613;32;45278;-73
2022/08/28 05:06:45;;;;;;;;;;;;;;;24.61;56.31;99992.66;5348769;32;34324;-71
2022/08/28 05:09:50;;;;;;;;;;;;;;;24.20;57.32;100004.94;5374091;32;35412;-73
2022/08/28 05:12:52;;;;;;;;;;;;;;;25.37;53.61;99998.03;5363025;32;34029;-71
2022/08/28 05:15:54;;;;;;;;;;;;;;;26.06;52.12;100000.44;5361319;32;34214;-72
2022/08/28 05:18:59;;;;;;;;;;;;;;;25.99;52.16;100007.53;5379673;32;34310;-72
2022/08/28 05:22:01;;;;;;;;;;;;;;;25.80;52.45;100009.53;5361526;32;35492;-72
2022/08/28 05:25:03;;;;;;;;;;;;;;;26.08;51.53;100004.69;5380064;32;34146;-72
2022/08/28 05:28:05;;;;;;;;;;;;;;;25.01;54.69;100015.34;5364334;32;34128;-73
2022/08/28 05:31:15;;;;;;;;;;;;;;;25.53;53.01;100015.19;5358013;32;44545;-73
2022/08/28 05:34:16;;;;;;;;;;;;;;;25.80;52.32;100019.47;5357868;32;34403;-71
2022/08/28 05:37:18;;;;;;;;;;;;;;;25.55;53.17;100018.56;5361816;32;35349;-72
2022/08/28 05:40:21;;;;;;;;;;;;;;;26.64;49.96;100021.78;5379905;32;36199;-73
2022/08/28 05:43:24;;;;;;;;;;;;;;;27.04;48.94;100008.31;5348271;32;33884;-73
2022/08/28 05:46:27;;;;;;;;;;;;;;;26.88;49.08;100011.94;5364789;32;36750;-73
2022/08/28 05:49:29;;;;;;;;;;;;;;;27.21;47.58;100000.00;5359716;32;34172;-74
2022/08/28 05:52:30;;;;;;;;;;;;;;;27.45;47.09;100009.84;5367437;32;34176;-72
2022/08/28 05:55:32;;;;;;;;;;;;;;;28.19;44.91;100012.84;5360208;32;36020;-72
2022/08/28 05:58:34;;;;;;;;;;;;;;;27.19;47.30;100006.63;5361549;32;34938;-73
2022/08/28 06:01:43;;;;;;;;;;;;;;;26.26;49.06;100003.63;5346014;32;34120;-73
2022/08/28 06:04:47;;;;;;;;;;;;;;;26.73;48.23;100009.97;5368667;32;44463;-72
2022/08/28 06:07:51;;;;;;;;;;;;;;;26.45;48.50;100014.06;5379494;32;35425;-73
2022/08/28 06:10:53;;;;;;;;;;;;;;;26.97;47.10;100008.19;5360604;32;35597;-73
2022/08/28 06:13:55;;;;;;;;;;;;;;;27.95;44.80;100010.34;5363539;32;34374;-72
2022/08/28 06:16:57;;;;;;;;;;;;;;;26.54;48.07;100001.44;5361819;32;34840;-71
2022/08/28 06:19:59;;;;;;;;;;;;;;;27.80;45.28;100005.72;5362622;32;35486;-71
2022/08/28 06:23:01;;;;;;;;;;;;;;;27.94;44.77;100004.09;5379688;32;34946;-72
2022/08/28 06:26:03;;;;;;;;;;;;;;;26.98;47.10;99999.06;5360277;32;34180;-72
2022/08/28 06:29:07;;;;;;;;;;;;;;;29.92;40.13;99994.31;5376970;32;36568;-72
2022/08/28 06:32:09;;;;;;;;;;;;;;;29.83;39.91;99992.78;5363770;32;34248;-75
2022/08/28 06:35:11;;;;;;;;;;;;;;;29.38;41.05;99992.91;5361379;32;45362;-74
2022/08/28 06:38:13;;;;;;;;;;;;;;;29.85;39.27;99991.53;5379877;32;34607;-73
2022/08/28 06:41:15;;;;;;;;;;;;;;;28.89;41.46;99989.97;5361244;32;34348;-73
2022/08/28 06:44:18;;;;;;;;;;;;;;;30.30;38.76;99994.00;5364674;32;34457;-73
2022/08/28 06:47:20;;;;;;;;;;;;;;;30.36;38.52;99998.66;5348962;32;34587;-72
2022/08/28 06:50:22;;;;;;;;;;;;;;;31.61;36.19;99987.56;5358829;32;34475;-72
2022/08/28 06:53:26;;;;;;;;;;;;;;;30.86;37.23;100000.25;5363480;32;34284;-73
2022/08/28 06:56:28;;;;;;;;;;;;;;;32.13;35.59;99999.53;5361967;32;35173;-71
2022/08/28 06:59:30;;;;;;;;;;;;;;;32.30;34.85;100002.69;5378658;32;34328;-74
2022/08/28 07:02:32;;;;;;;;;;;;;;;32.32;34.53;100008.72;5343513;32;35176;-72
2022/08/28 07:05:34;;;;;;;;;;;;;;;31.16;36.50;100008.91;5386500;32;34377;-74
2022/08/28 07:08:36;;;;;;;;;;;;;;;34.05;31.62;100003.47;5360594;32;35542;-73
2022/08/28 07:11:38;;;;;;;;;;;;;;;33.31;32.54;100000.34;5369276;32;34172;-73
2022/08/28 07:14:40;;;;;;;;;;;;;;;33.54;32.11;100004.44;5361347;32;44783;-73
2022/08/28 07:17:42;;;;;;;;;;;;;;;34.57;30.57;100009.53;5359712;32;35712;-73
2022/08/28 07:20:44;;;;;;;;;;;;;;;32.99;32.87;100012.22;5364974;32;34834;-73
2022/08/28 07:23:46;;;;;;;;;;;;;;;34.30;30.49;100017.09;5360808;32;35140;-73
2022/08/28 07:26:48;;;;;;;;;;;;;;;34.45;30.30;100012.97;5380724;32;35607;-73
2022/08/28 07:29:51;;;;;;;;;;;;;;;32.69;33.37;100017.28;5359709;32;34287;-73
2022/08/28 07:32:53;;;;;;;;;;;;;;;31.16;36.56;100014.34;5377902;32;34480;-73
2022/08/28 07:35:56;;;;;;;;;;;;;;;30.50;38.21;100029.41;5364074;32;35368;-73
2022/08/28 07:38:58;;;;;;;;;;;;;;;32.56;34.05;100020.88;5360980;32;34302;-74
2022/08/28 07:42:00;;;;;;;;;;;;;;;31.42;36.34;100026.38;5365435;32;35263;-73
2022/08/28 07:45:02;;;;;;;;;;;;;;;31.73;35.60;100029.38;5344438;32;32783;-73
2022/08/28 07:48:06;;;;;;;;;;;;;;;31.29;36.43;100027.16;5363440;32;34827;-72
2022/08/28 07:51:12;;;;;;;;;;;;;;;32.46;34.30;100031.34;5355368;32;43182;-73
2022/08/28 07:54:14;;;;;;;;;;;;;;;33.48;32.51;100024.38;5369429;32;34352;-73
2022/08/28 07:57:20;;;;;;;;;;;;;;;34.03;31.58;100024.69;5370010;32;34332;-73
2022/08/28 08:00:23;;;;;;;;;;;;;;;33.13;33.00;100030.16;5338606;32;34172;-72
2022/08/28 08:03:25;;;;;;;;;;;;;;;32.32;34.66;100027.78;5371307;32;35519;-73
2022/08/28 08:06:28;;;;;;;;;;;;;;;32.65;34.00;100037.81;5350455;32;35534;-74
2022/08/28 08:09:36;;;;;;;;;;;;;;;32.20;34.73;100024.88;5363344;32;34174;-73
2022/08/28 08:12:41;;;;;;;;;;;;;;;30.90;37.08;100025.06;5361914;32;33314;-73
2022/08/28 08:15:43;;;;;;;;;;;;;;;31.15;37.22;100031.69;5361798;32;44462;-72
2022/08/28 08:18:46;;;;;;;;;;;;;;;31.39;36.47;100034.94;5374361;32;36224;-73
2022/08/28 08:21:50;;;;;;;;;;;;;;;33.81;32.42;100030.44;5347551;32;34244;-73
2022/08/28 08:24:55;;;;;;;;;;;;;;;35.91;28.67;100029.53;5376549;32;34239;-73
2022/08/28 08:27:57;;;;;;;;;;;;;;;35.26;29.37;100030.16;5359691;32;34173;-73
2022/08/28 08:31:03;;;;;;;;;;;;;;;35.22;29.66;100039.88;5362124;32;35611;-72
2022/08/28 08:34:07;;;;;;;;;;;;;;;35.15;30.08;100031.78;5349352;32;34220;-73
2022/08/28 08:37:09;;;;;;;;;;;;;;;34.62;30.40;100031.50;5359042;32;34221;-73
2022/08/28 08:40:14;;;;;;;;;;;;;;;35.22;29.81;100035.25;5375912;32;46101;-72
2022/08/28 08:43:16;;;;;;;;;;;;;;;33.97;31.38;100042.75;5335039;32;34155;-73
2022/08/28 08:46:19;;;;;;;;;;;;;;;33.49;32.00;100039.66;5377723;32;35667;-73
2022/08/28 08:49:22;;;;;;;;;;;;;;;36.84;26.84;100035.06;5341883;32;34761;-73
2022/08/28 08:52:27;;;;;;;;;;;;;;;37.18;26.52;100042.62;5360528;32;34129;-74
2022/08/28 08:55:31;;;;;;;;;;;;;;;36.48;27.62;100046.28;5363682;32;34547;-73
2022/08/28 08:58:39;;;;;;;;;;;;;;;35.67;28.27;100042.25;5346429;32;35346;-73
2022/08/28 09:02:03;;;;;;;;;;;;;;;37.56;25.61;100034.66;5345223;32;44517;-73
2022/08/28 09:05:07;;;;;;;;;;;;;;;37.98;24.93;100033.50;5333965;32;34270;-73
2022/08/28 09:08:28;;;;;;;;;;;;;;;36.40;26.72;100041.16;5362950;32;35369;-73
2022/08/28 09:11:30;;;;;;;;;;;;;;;34.49;28.91;100046.12;5377995;32;34562;-73
2022/08/28 09:14:32;;;;;;;;;;;;;;;37.49;24.63;100033.97;5357750;32;34273;-74
2022/08/28 09:17:35;;;;;;;;;;;;;;;36.54;25.66;100039.84;5376846;32;34291;-73
2022/08/28 09:20:37;;;;;;;;;;;;;;;36.48;25.63;100038.88;5360091;32;35552;-73
2022/08/28 09:23:39;;;;;;;;;;;;;;;36.11;25.88;100042.88;5375674;32;35262;-73
2022/08/28 09:26:41;;;;;;;;;;;;;;;34.14;27.09;100043.87;5362507;32;45087;-72
2022/08/28 09:29:46;;;;;;;;;;;;;;;36.25;23.67;100039.66;5352770;32;35549;-72
2022/08/28 09:32:57;;;;;;;;;;;;;;;37.03;22.67;100046.69;5356814;32;34681;-73
2022/08/28 09:36:18;;;;;;;;;;;;;;;37.14;22.88;100037.63;5360084;32;34374;-73
2022/08/28 09:39:20;;;;;;;;;;;;;;;37.43;21.70;100034.97;5360499;32;34265;-73
2022/08/28 09:45:43;;;;;;;;;;;;;;;39.09;20.88;100042.59;5364559;32;44543;-74
2022/08/28 09:48:45;;;;;;;;;;;;;;;39.64;19.91;100041.66;5367160;32;35491;-73
2022/08/28 09:51:49;;;;;;;;;;;;;;;36.87;23.50;100058.41;5343773;32;34336;-74
2022/08/28 09:54:51;;;;;;;;;;;;;;;38.92;20.83;100031.69;5365707;32;34240;-73
2022/08/28 09:57:53;;;;;;;;;;;;;;;40.50;19.39;100038.81;5344985;32;34745;-74
2022/08/28 10:00:58;;;;;;;;;;;;;;;41.95;17.96;100030.87;5362519;32;34643;-73
2022/08/28 10:03:59;;;;;;;;;;;;;;;38.02;22.75;100027.28;5345059;32;33715;-73
2022/08/28 10:07:10;;;;;;;;;;;;;;;38.91;22.02;100034.69;5370282;32;34118;-73
2022/08/28 10:10:12;;;;;;;;;;;;;;;39.32;21.61;100029.72;5363196;32;43357;-72
2022/08/28 10:13:28;;;;;;;;;;;;;;;40.54;20.20;100020.69;5362087;32;35576;-74
2022/08/28 10:16:48;;;;;;;;;;;;;;;38.45;22.82;100021.13;5364130;32;34169;-74
2022/08/28 10:20:09;;;;;;;;;;;;;;;39.34;21.63;100022.03;5361994;32;35702;-73
2022/08/28 10:23:11;;;;;;;;;;;;;;;38.18;23.53;100026.41;5361753;32;44758;-74
2022/08/28 10:26:20;;;;;;;;;;;;;;;41.10;19.88;100020.16;5381322;32;34367;-73
2022/08/28 10:29:25;;;;;;;;;;;;;;;36.64;25.44;100020.91;5360434;32;35507;-75
2022/08/28 10:32:30;;;;;;;;;;;;;;;38.85;22.47;100024.72;5377225;32;35338;-74
2022/08/28 10:35:51;;;;;;;;;;;;;;;38.02;23.59;100018.22;5363288;32;34319;-74
2022/08/28 10:38:59;;;;;;;;;;;;;;;38.09;23.13;100016.97;5361776;32;35561;-74
2022/08/28 10:42:02;;;;;;;;;;;;;;;37.33;23.87;100015.53;5380223;32;34223;-73
2022/08/28 10:45:05;;;;;;;;;;;;;;;35.13;26.87;100020.25;5347420;32;35588;-73
2022/08/28 10:48:09;;;;;;;;;;;;;;;36.20;25.46;100012.22;5377367;32;34378;-73
2022/08/28 10:51:31;;;;;;;;;;;;;;;36.31;25.29;100019.56;5358094;32;44469;-73
2022/08/28 10:54:49;;;;;;;;;;;;;;;35.38;26.32;100011.94;5360971;32;35461;-72
2022/08/28 10:57:51;;;;;;;;;;;;;;;34.38;27.65;100014.91;5365251;32;35032;-72
2022/08/28 11:00:54;;;;;;;;;;;;;;;33.29;29.43;100013.31;5348247;32;34339;-73
2022/08/28 11:03:57;;;;;;;;;;;;;;;33.58;29.13;100011.13;5359651;32;34358;-73
2022/08/28 11:07:01;;;;;;;;;;;;;;;34.12;27.99;100012.44;5351326;32;34583;-73
2022/08/28 11:10:35;;;;;;;;;;;;;;;34.73;27.42;100006.22;5376312;32;35305;-73
2022/08/28 11:13:45;;;;;;;;;;;;;;;34.78;27.14;99994.59;5362550;32;35792;-73
2022/08/28 11:16:48;;;;;;;;;;;;;;;36.39;24.57;100004.75;5346209;32;45204;-72
2022/08/28 11:19:55;;;;;;;;;;;;;;;35.92;25.07;100004.66;5376813;32;34261;-73
2022/08/28 11:23:16;;;;;;;;;;;;;;;35.79;25.35;100004.84;5362424;32;36242;-73
2022/08/28 11:26:23;;;;;;;;;;;;;;;36.96;23.65;99996.72;5356864;32;44528;-73
2022/08/28 11:30:05;;;;;;;;;;;;;;;37.86;21.68;99997.91;5370429;32;35693;-73
2022/08/28 11:33:08;;;;;;;;;;;;;;;36.74;22.77;99995.66;5299264;33;35508;-74
2022/08/28 11:36:31;;;;;;;;;;;;;;;40.47;18.93;99989.81;5304400;32;44665;-73
2022/08/28 11:39:33;;;;;;;;;;;;;;;35.67;24.23;100004.81;5337524;32;34511;-73
2022/08/28 11:42:35;;;;;;;;;;;;;;;37.51;22.09;99993.44;5361013;32;35363;-73
2022/08/28 11:45:58;;;;;;;;;;;;;;;36.87;22.73;99992.69;5380372;32;33975;-73
2022/08/28 11:49:04;;;;;;;;;;;;;;;36.72;23.37;99990.44;5347393;32;34860;-73
2022/08/28 11:52:21;;;;;;;;;;;;;;;36.63;23.33;99991.88;5376305;32;35650;-73
2022/08/28 11:55:35;;;;;;;;;;;;;;;36.18;24.02;99989.72;5362566;32;34480;-74
2022/08/28 11:58:55;;;;;;;;;;;;;;;35.49;25.06;99985.78;5359565;32;34103;-74
2022/08/28 12:02:17;;;;;;;;;;;;;;;35.44;25.76;99978.25;5344356;32;34531;-75
2022/08/28 12:05:30;;;;;;;;;;;;;;;35.55;25.01;99979.34;5365552;32;43883;-74
2022/08/28 12:08:55;;;;;;;;;;;;;;;37.31;22.75;99982.91;5373086;32;34109;-75
2022/08/28 12:11:59;;;;;;;;;;;;;;;35.52;25.30;99977.91;5345429;32;35449;-73
2022/08/28 12:15:02;;;;;;;;;;;;;;;37.27;23.15;99967.19;5347112;32;34030;-75
2022/08/28 12:18:05;;;;;;;;;;;;;;;39.23;20.88;99961.47;5362807;32;35409;-74
2022/08/28 12:21:17;;;;;;;;;;;;;;;41.32;18.32;99964.84;5363342;32;35591;-75
2022/08/28 12:24:20;;;;;;;;;;;;;;;42.32;17.15;99959.62;5360127;32;43278;-75
2022/08/28 12:27:22;;;;;;;;;;;;;;;42.81;16.00;99967.22;5363416;32;34390;-74
2022/08/28 12:30:29;;;;;;;;;;;;;;;38.97;19.64;99973.25;5362056;32;34118;-79
2022/08/28 12:33:33;;;;;;;;;;;;;;;42.43;16.51;99955.72;5361920;32;35171;-79
2022/08/28 12:36:35;;;;;;;;;;;;;;;38.90;21.96;99970.69;5348035;32;35941;-79
2022/08/28 12:39:37;;;;;;;;;;;;;;;37.09;25.41;99969.03;5376429;32;34375;-81
2022/08/28 12:42:45;;;;;;;;;;;;;;;40.05;21.80;99952.06;5346686;32;34764;-79
2022/08/28 12:45:53;;;;;;;;;;;;;;;37.75;24.63;99958.50;5358211;32;46798;-79
2022/08/28 12:48:58;;;;;;;;;;;;;;;36.66;26.50;99952.25;5364946;32;35232;-82
2022/08/28 12:52:06;;;;;;;;;;;;;;;38.92;23.84;99962.19;5344311;32;34176;-80
2022/08/28 12:55:08;;;;;;;;;;;;;;;37.86;25.28;99956.78;5363307;32;33821;-81
2022/08/28 12:58:25;;;;;;;;;;;;;;;36.81;26.79;99960.78;5361410;32;44214;-71
2022/08/28 13:01:31;;;;;;;;;;;;;;;37.15;26.15;99961.75;5345048;32;35629;-78
2022/08/28 13:04:37;;;;;;;;;;;;;;;34.43;30.10;99970.63;5358577;32;35675;-78
2022/08/28 13:07:44;;;;;;;;;;;;;;;35.06;29.12;99955.87;5360060;32;34424;-79
2022/08/28 13:10:47;;;;;;;;;;;;;;;33.71;31.14;99964.72;5363648;32;42986;-78
2022/08/28 13:13:49;;;;;;;;;;;;;;;31.82;34.31;99964.88;5359724;32;35524;-79
2022/08/28 13:16:50;;;;;;;;;;;;;;;32.45;33.18;99961.69;5363404;32;34768;-76
2022/08/28 13:20:00;;;;;;;;;;;;;;;32.51;32.85;99950.78;5360829;32;34270;-82
2022/08/28 13:23:02;;;;;;;;;;;;;;;31.55;34.63;99959.34;5366023;32;33793;-84
2022/08/28 13:26:05;;;;;;;;;;;;;;;32.66;32.86;99957.88;5359730;32;34857;-75
2022/08/28 13:29:15;;;;;;;;;;;;;;;32.92;32.50;99952.38;5359286;32;34284;-80
2022/08/28 13:32:17;;;;;;;;;;;;;;;32.44;33.47;99949.13;5361044;32;45781;-80
2022/08/28 13:35:19;;;;;;;;;;;;;;;32.26;33.60;99958.75;5360935;32;34907;-76
2022/08/28 13:38:21;;;;;;;;;;;;;;;33.19;32.09;99947.63;5378545;32;34399;-80
2022/08/28 13:41:28;;;;;;;;;;;;;;;32.42;33.40;99951.25;5362595;32;34841;-75
2022/08/28 13:44:33;;;;;;;;;;;;;;;32.74;33.11;99944.03;5348131;32;36488;-81
2022/08/28 13:47:35;;;;;;;;;;;;;;;33.11;32.37;99945.16;5377609;32;34249;-80
2022/08/28 13:50:38;;;;;;;;;;;;;;;32.68;32.83;99937.56;5346972;32;35500;-77
2022/08/28 13:53:41;;;;;;;;;;;;;;;33.39;31.82;99929.31;5365270;32;44358;-75
2022/08/28 13:56:42;;;;;;;;;;;;;;;32.41;33.26;99933.25;5348622;32;35621;-80
2022/08/28 13:59:44;;;;;;;;;;;;;;;32.68;32.92;99923.97;5377368;32;34712;-80
2022/08/28 14:06:10;;;;;;;;;;;;;;;33.05;32.95;99929.69;5355869;32;34463;-80
2022/08/28 14:09:14;;;;;;;;;;;;;;;32.50;34.05;99937.41;5375698;32;46460;-79
2022/08/28 14:12:18;;;;;;;;;;;;;;;33.15;32.31;99925.44;5349802;32;34448;-80
2022/08/28 14:15:20;;;;;;;;;;;;;;;32.25;33.93;99919.03;5377970;32;34931;-75
2022/08/28 14:18:23;;;;;;;;;;;;;;;33.04;32.76;99915.25;5349694;32;35580;-82
2022/08/28 14:21:25;;;;;;;;;;;;;;;32.69;33.32;99919.34;5367536;32;34160;-76
2022/08/28 14:24:26;;;;;;;;;;;;;;;32.79;33.50;99920.56;5374449;32;34712;-80
2022/08/28 14:27:28;;;;;;;;;;;;;;;33.18;32.67;99924.19;5362474;32;34272;-75
2022/08/28 14:30:30;;;;;;;;;;;;;;;32.98;33.05;99923.47;5378791;32;34635;-81
2022/08/28 14:33:32;;;;;;;;;;;;;;;33.12;33.31;99919.59;5348847;32;34983;-81
2022/08/28 14:36:38;;;;;;;;;;;;;;;32.06;35.05;99922.59;5377134;32;33474;-75
2022/08/28 14:39:40;;;;;;;;;;;;;;;32.41;34.75;99927.81;5361825;32;37605;-75
2022/08/28 14:42:42;;;;;;;;;;;;;;;32.94;34.09;99919.50;5349623;32;34992;-76
2022/08/28 14:45:45;;;;;;;;;;;;;;;32.76;34.14;99921.00;5378937;32;35940;-74
2022/08/28 14:48:47;;;;;;;;;;;;;;;33.39;33.38;99920.31;5358014;32;35850;-75
2022/08/28 14:51:50;;;;;;;;;;;;;;;33.54;32.83;99930.88;5375652;32;34251;-82
2022/08/28 14:54:51;;;;;;;;;;;;;;;33.03;33.68;99929.88;5348432;32;34850;-76
2022/08/28 14:57:53;;;;;;;;;;;;;;;31.84;35.85;99937.47;5377495;32;34892;-82
2022/08/28 15:00:55;;;;;;;;;;;;;;;31.57;36.34;99931.16;5352073;32;35659;-76
2022/08/28 15:03:58;;;;;;;;;;;;;;;31.83;35.95;99935.81;5358757;32;34825;-76
2022/08/28 15:07:00;;;;;;;;;;;;;;;31.43;36.57;99933.00;5382501;32;34883;-75
2022/08/28 15:10:02;;;;;;;;;;;;;;;31.32;36.56;99941.78;5336903;32;34868;-80
2022/08/28 15:13:05;;;;;;;;;;;;;;;31.15;36.77;99939.37;5378151;32;34772;-76
2022/08/28 15:16:16;;;;;;;;;;;;;;;31.85;35.63;99944.56;5348238;32;46250;-76
2022/08/28 15:19:18;;;;;;;;;;;;;;;31.26;36.60;99941.56;5376445;32;35448;-75
2022/08/28 15:22:20;;;;;;;;;;;;;;;31.91;35.03;99938.31;5365150;32;36377;-77
2022/08/28 15:25:28;;;;;;;;;;;;;;;31.42;36.05;99940.31;5362088;32;34812;-74
2022/08/28 15:28:30;;;;;;;;;;;;;;;32.19;34.85;99925.31;5377579;32;34722;-80
2022/08/28 15:31:33;;;;;;;;;;;;;;;31.87;35.31;99947.91;5348501;32;33844;-75
2022/08/28 15:34:35;;;;;;;;;;;;;;;32.44;34.43;99936.38;5363171;32;34069;-81
2022/08/28 15:37:37;;;;;;;;;;;;;;;32.13;34.98;99950.63;5363187;32;36288;-80
2022/08/28 15:44:00;;;;;;;;;;;;;;;31.55;36.18;99948.47;5375349;32;34908;-80
2022/08/28 15:47:03;;;;;;;;;;;;;;;31.20;36.89;99936.91;5334562;32;34161;-81
2022/08/28 15:50:06;;;;;;;;;;;;;;;32.08;35.60;99945.84;5374118;32;34326;-75
2022/08/28 15:53:12;;;;;;;;;;;;;;;31.97;35.74;99953.78;5360653;32;44940;-77
2022/08/28 15:56:17;;;;;;;;;;;;;;;31.59;36.66;99946.19;5376741;32;34929;-75
2022/08/28 15:59:19;;;;;;;;;;;;;;;32.08;36.08;99955.87;5363256;32;34751;-75
2022/08/28 16:02:21;;;;;;;;;;;;;;;31.85;36.48;99941.84;5315301;32;35515;-80
2022/08/28 16:05:23;;;;;;;;;;;;;;;30.42;38.89;99951.78;5371906;32;34919;-81
2022/08/28 16:08:31;;;;;;;;;;;;;;;30.69;38.83;99948.19;5348266;32;34007;-78